Terminal Aerodrome Forecast
Issued by NWS Chicago, IL

Home | Current Version | Previous Version | Text Only | Print | Product List | Glossary Off
Versions: 1 2 3 4 5 6 7 8 9 10 11 12 13 14 15 16 17 18 19 20 21 22 23 24 25

569
FTUS43 KLOT 241944 AAA
TAFRFD
TAF AMD
KRFD 241944Z 2420/2518 24012G19KT P6SM VCTS BKN030 BKN040CB
     FM242200 27007KT P6SM SCT025 BKN200
     FM250400 VRB03KT P6SM SCT200
     FM251400 34008KT P6SM SCT250=

USA.gov is the U.S. government's official web portal to all federal, state and local government web resources and services.